Time;durP1;ratioP1;P1;durP2;ratioP2;P2;SDS_P1;SDS_P2;PMS_P1;PMS_P2;Temp;Humidity;BMP_temperature;BMP_pressure;BME280_temperature;BME280_humidity;BME280_pressure;Samples;Min_cycle;Max_cycle;Signal;HPM_P1;HPM_P2
2023/11/14 00:02:20;;;;;;;26.70;15.80;;;;;;;4.43;93.21;99312.33;105870;1256;97773;-79
2023/11/14 00:05:06;;;;;;;26.50;16.90;;;;;;;4.45;93.41;99290.84;105931;1257;96535;-79
2023/11/14 00:07:52;;;;;;;27.50;17.10;;;;;;;4.47;93.80;99265.05;105833;1256;97116;-79
2023/11/14 00:10:38;;;;;;;22.40;15.10;;;;;;;4.46;94.11;99251.30;105947;1259;100005;-78
2023/11/14 00:13:23;;;;;;;26.90;16.30;;;;;;;4.47;94.73;99251.55;105985;1259;99153;-79
2023/11/14 00:16:09;;;;;;;31.70;18.00;;;;;;;4.48;95.07;99247.12;105982;1257;97812;-78
2023/11/14 00:18:55;;;;;;;28.30;19.30;;;;;;;4.49;95.45;99233.66;105951;1257;96622;-78
2023/11/14 00:21:41;;;;;;;29.40;19.60;;;;;;;4.48;95.87;99226.36;106109;1259;96675;-79
2023/11/14 00:24:28;;;;;;;36.80;19.00;;;;;;;4.47;96.34;99213.57;105829;1257;101374;-79
2023/11/14 00:27:14;;;;;;;43.10;20.20;;;;;;;4.45;96.48;99212.92;105962;1257;99226;-79
2023/11/14 00:30:00;;;;;;;31.30;19.00;;;;;;;4.42;96.80;99218.34;105822;1259;98476;-77
2023/11/14 00:32:46;;;;;;;28.70;17.80;;;;;;;4.38;97.06;99234.05;105951;1260;96613;-79
2023/11/14 00:35:31;;;;;;;27.00;16.30;;;;;;;4.37;97.33;99257.91;105933;1257;97054;-79
2023/11/14 00:38:18;;;;;;;27.00;15.90;;;;;;;4.37;97.49;99276.63;105923;1257;100011;-79
2023/11/14 00:41:04;;;;;;;22.60;15.10;;;;;;;4.37;97.83;99271.36;105946;1259;100328;-78
2023/11/14 00:43:50;;;;;;;22.30;16.80;;;;;;;4.37;98.32;99237.20;105855;1260;97718;-79
2023/11/14 00:46:38;;;;;;;33.00;17.60;;;;;;;4.37;98.46;99170.72;105870;1259;97796;-78
2023/11/14 00:49:24;;;;;;;31.70;18.90;;;;;;;4.35;98.86;99111.92;105924;1257;97243;-78
2023/11/14 00:52:10;;;;;;;30.90;17.60;;;;;;;4.30;98.94;99089.76;105935;1259;100718;-77
2023/11/14 00:54:56;;;;;;;31.90;18.60;;;;;;;4.25;99.26;99056.45;105735;1258;129921;-78
2023/11/14 00:57:42;;;;;;;31.30;18.10;;;;;;;4.19;99.53;99002.46;105866;1259;97717;-79
2023/11/14 01:00:28;;;;;;;27.50;18.40;;;;;;;4.11;99.88;98967.73;105953;1259;96602;-78
2023/11/14 01:03:14;;;;;;;33.70;20.00;;;;;;;4.04;99.99;98974.58;106266;1260;97505;-79
2023/11/14 01:06:00;;;;;;;32.20;18.30;;;;;;;3.98;100.00;98967.20;106241;1257;101213;-78
2023/11/14 01:08:46;;;;;;;32.20;18.60;;;;;;;3.93;100.00;98978.34;105902;1259;100676;-77
2023/11/14 01:11:32;;;;;;;31.00;19.70;;;;;;;3.91;100.00;98964.46;105849;1260;97804;-79
2023/11/14 01:14:18;;;;;;;30.80;19.00;;;;;;;3.91;100.00;98968.20;105847;1255;97490;-79
2023/11/14 01:17:04;;;;;;;29.40;18.30;;;;;;;3.91;100.00;98960.39;105735;1257;96510;-79
2023/11/14 01:19:50;;;;;;;28.40;19.40;;;;;;;3.92;100.00;98962.46;105879;1257;99988;-77
2023/11/14 01:22:36;;;;;;;29.50;17.90;;;;;;;3.92;100.00;98946.41;105869;1256;99072;-78
2023/11/14 01:25:22;;;;;;;28.40;17.60;;;;;;;3.93;100.00;98954.54;105797;1257;97711;-78
2023/11/14 01:28:08;;;;;;;33.00;19.50;;;;;;;3.96;100.00;98952.09;105959;1257;97232;-78
2023/11/14 01:30:53;;;;;;;29.50;19.00;;;;;;;3.97;100.00;98964.46;105866;1257;97294;-78
2023/11/14 01:33:39;;;;;;;37.00;22.60;;;;;;;3.99;100.00;98977.67;105960;1259;100863;-78
2023/11/14 01:36:24;;;;;;;31.90;19.90;;;;;;;4.00;100.00;98976.30;105817;1257;100604;-79
2023/11/14 01:39:10;;;;;;;29.10;18.60;;;;;;;4.04;100.00;98956.63;105893;1257;97849;-78
2023/11/14 01:41:56;;;;;;;31.30;19.40;;;;;;;4.07;100.00;98947.88;105871;1259;97916;-78
2023/11/14 01:44:42;;;;;;;30.20;20.10;;;;;;;4.10;100.00;98936.78;105919;1259;97119;-78
2023/11/14 01:47:29;;;;;;;36.80;22.70;;;;;;;4.12;100.00;98934.41;105882;1260;101327;-78
2023/11/14 01:50:16;;;;;;;29.40;19.40;;;;;;;4.14;100.00;98935.94;106299;1256;99109;-78
2023/11/14 01:53:04;;;;;;;39.00;21.30;;;;;;;4.17;100.00;98939.09;106008;1255;97694;-78
2023/11/14 01:55:50;;;;;;;35.50;20.30;;;;;;;4.19;100.00;98947.64;106090;1257;96622;-78
2023/11/14 01:58:36;;;;;;;33.90;20.40;;;;;;;4.22;100.00;98945.64;106009;1256;96852;-79
2023/11/14 02:01:24;;;;;;;34.60;21.20;;;;;;;4.26;100.00;98930.05;105818;1257;101552;-77
2023/11/14 02:04:20;;;;;;;33.20;19.20;;;;;;;4.28;100.00;98926.08;105884;1259;99143;-78
2023/11/14 02:07:07;;;;;;;31.40;20.10;;;;;;;4.30;100.00;98920.85;105802;1259;97866;-77
2023/11/14 02:09:53;;;;;;;34.60;20.10;;;;;;;4.32;100.00;98909.66;105909;1256;96548;-77
2023/11/14 02:12:39;;;;;;;35.70;20.90;;;;;;;4.33;100.00;98903.36;105937;1260;96602;-78
2023/11/14 02:15:24;;;;;;;30.20;19.50;;;;;;;4.33;100.00;98909.39;106337;1259;101274;-79
2023/11/14 02:18:17;;;;;;;33.30;21.10;;;;;;;4.34;100.00;98909.82;106168;1260;99882;-78
2023/11/14 02:21:03;;;;;;;38.60;21.70;;;;;;;4.37;100.00;98905.88;106273;1255;97884;-79
2023/11/14 02:23:52;;;;;;;34.10;20.10;;;;;;;4.39;100.00;98903.96;106392;1255;96393;-79
2023/11/14 02:26:38;;;;;;;31.70;19.90;;;;;;;4.43;100.00;98900.20;105740;1256;97524;-79
2023/11/14 02:29:24;;;;;;;29.20;19.30;;;;;;;4.45;100.00;98898.46;105992;1260;100056;-79
2023/11/14 02:32:10;;;;;;;32.40;19.20;;;;;;;4.48;100.00;98898.29;105991;1257;99070;-78
2023/11/14 02:34:56;;;;;;;32.40;20.30;;;;;;;4.50;100.00;98891.42;106005;1259;97950;-78
2023/11/14 02:37:41;;;;;;;32.10;20.40;;;;;;;4.53;100.00;98898.75;106070;1256;97791;-77
2023/11/14 02:40:27;;;;;;;32.80;20.40;;;;;;;4.56;100.00;98898.20;105898;1256;97616;-78
2023/11/14 02:43:13;;;;;;;31.30;20.60;;;;;;;4.58;100.00;98888.36;105857;1257;101655;-79
2023/11/14 02:45:58;;;;;;;31.90;19.70;;;;;;;4.60;100.00;98883.28;105612;1256;100331;-78
2023/11/14 02:48:43;;;;;;;34.40;19.90;;;;;;;4.61;100.00;98878.06;105623;1256;99022;-78
2023/11/14 02:51:29;;;;;;;30.90;19.40;;;;;;;4.63;100.00;98889.50;105674;1256;96629;-79
2023/11/14 02:54:15;;;;;;;30.80;19.90;;;;;;;4.65;100.00;98890.70;106100;1256;97051;-79
2023/11/14 02:57:00;;;;;;;27.70;17.70;;;;;;;4.66;100.00;98881.45;106075;1256;100050;-79
2023/11/14 02:59:47;;;;;;;28.80;19.00;;;;;;;4.69;100.00;98878.30;105922;1256;99128;-77
2023/11/14 03:02:33;;;;;;;33.80;20.80;;;;;;;4.72;100.00;98868.28;105913;1257;97816;-78
2023/11/14 03:05:19;;;;;;;32.20;20.80;;;;;;;4.73;100.00;98875.15;106045;1259;96616;-77
2023/11/14 03:08:05;;;;;;;32.20;20.40;;;;;;;4.75;100.00;98871.02;105791;1255;96597;-77
2023/11/14 03:10:50;;;;;;;31.20;18.60;;;;;;;4.78;100.00;98864.90;105724;1256;99978;-78
2023/11/14 03:13:36;;;;;;;29.00;18.70;;;;;;;4.79;100.00;98865.88;105666;1260;99138;-82
2023/11/14 03:16:22;;;;;;;31.80;20.20;;;;;;;4.82;100.00;98862.93;106037;1259;97781;-78
2023/11/14 03:19:09;;;;;;;29.40;18.50;;;;;;;4.84;100.00;98860.46;106058;1259;96600;-78
2023/11/14 03:21:54;;;;;;;29.30;19.50;;;;;;;4.87;100.00;98858.85;107808;1256;96667;-78
2023/11/14 03:24:40;;;;;;;34.30;19.70;;;;;;;4.90;100.00;98865.00;105935;1255;101310;-78
2023/11/14 03:27:25;;;;;;;31.60;19.40;;;;;;;4.94;100.00;98871.64;105777;1259;99169;-78
2023/11/14 03:30:12;;;;;;;31.20;19.40;;;;;;;4.98;100.00;98863.02;105947;1262;98524;-77
2023/11/14 03:32:58;;;;;;;32.80;20.10;;;;;;;5.01;100.00;98862.27;105983;1257;96632;-78
2023/11/14 03:35:43;;;;;;;30.40;20.20;;;;;;;5.05;100.00;98861.35;106052;1260;96595;-78
2023/11/14 03:38:29;;;;;;;30.30;19.80;;;;;;;5.09;100.00;98866.52;105960;1260;99992;-78
2023/11/14 03:41:15;;;;;;;28.90;19.70;;;;;;;5.12;100.00;98866.27;105901;1257;100038;-79
2023/11/14 03:44:02;;;;;;;29.40;20.80;;;;;;;5.16;100.00;98866.33;106102;1257;97876;-79
2023/11/14 03:46:48;;;;;;;28.70;19.70;;;;;;;5.19;100.00;98860.02;106082;1256;97333;-80
2023/11/14 03:49:33;;;;;;;31.00;20.50;;;;;;;5.24;100.00;98853.66;106168;1259;97180;-79
2023/11/14 03:52:19;;;;;;;36.10;20.50;;;;;;;5.26;100.00;98851.32;106054;1257;100029;-79
2023/11/14 03:55:05;;;;;;;30.70;21.30;;;;;;;5.30;100.00;98846.11;106039;1256;99130;-80
2023/11/14 03:57:50;;;;;;;28.40;19.50;;;;;;;5.32;100.00;98846.29;106492;1259;97805;-80
2023/11/14 04:00:36;;;;;;;30.50;20.00;;;;;;;5.35;100.00;98844.15;106118;1260;96728;-79
2023/11/14 04:03:22;;;;;;;33.10;21.30;;;;;;;5.38;100.00;98843.59;105966;1260;96534;-79
2023/11/14 04:06:12;;;;;;;36.70;21.50;;;;;;;5.42;100.00;98840.67;105888;1255;101346;-79
2023/11/14 04:08:57;;;;;;;31.10;21.10;;;;;;;5.45;100.00;98841.49;105964;1257;99063;-78
2023/11/14 04:11:47;;;;;;;30.80;21.00;;;;;;;5.48;100.00;98844.73;106048;1259;99302;-79
2023/11/14 04:14:32;;;;;;;34.40;22.00;;;;;;;5.52;100.00;98840.05;106069;1254;96609;-79
2023/11/14 04:17:18;;;;;;;30.70;21.50;;;;;;;5.55;100.00;98839.79;106051;1259;96848;-78
2023/11/14 04:20:05;;;;;;;38.30;23.20;;;;;;;5.60;100.00;98840.31;106064;1256;100759;-77
2023/11/14 04:22:51;;;;;;;33.90;23.90;;;;;;;5.64;100.00;98843.10;106646;1259;100349;-78
2023/11/14 04:25:36;;;;;;;34.60;22.60;;;;;;;5.68;100.00;98848.19;105931;1257;98787;-78
2023/11/14 04:28:22;;;;;;;35.90;22.30;;;;;;;5.72;100.00;98851.11;106079;1258;96601;-79
2023/11/14 04:31:08;;;;;;;33.40;20.80;;;;;;;5.75;100.00;98862.68;105998;1259;97135;-78
2023/11/14 04:33:54;;;;;;;34.20;21.70;;;;;;;5.79;100.00;98863.59;105910;1259;101383;-78
2023/11/14 04:36:40;;;;;;;34.10;21.60;;;;;;;5.83;100.00;98867.68;105783;1256;99213;-77
2023/11/14 04:39:26;;;;;;;32.60;22.00;;;;;;;5.86;100.00;98865.17;105720;1260;97712;-78
2023/11/14 04:42:12;;;;;;;36.40;22.40;;;;;;;5.90;100.00;98872.13;105698;1260;96683;-79
2023/11/14 04:44:58;;;;;;;32.70;21.80;;;;;;;5.94;100.00;98870.81;106457;1257;97047;-78
2023/11/14 04:47:44;;;;;;;34.00;20.90;;;;;;;5.99;100.00;98881.14;105918;1259;101724;-79
2023/11/14 04:50:30;;;;;;;32.60;21.90;;;;;;;6.05;100.00;98885.30;105973;1260;99114;-79
2023/11/14 04:53:16;;;;;;;33.40;20.70;;;;;;;6.11;100.00;98877.27;106019;1259;99208;-80
2023/11/14 04:56:03;;;;;;;34.00;21.10;;;;;;;6.18;100.00;98879.75;106441;1259;96530;-79
2023/11/14 04:58:49;;;;;;;32.80;21.90;;;;;;;6.25;100.00;98882.39;106882;1259;96340;-79
2023/11/14 05:01:35;;;;;;;29.30;19.40;;;;;;;6.32;100.00;98882.20;106913;1256;100671;-80
2023/11/14 05:04:21;;;;;;;31.70;20.30;;;;;;;6.40;100.00;98886.92;106938;1257;99089;-79
2023/11/14 05:07:06;;;;;;;30.80;19.80;;;;;;;6.47;100.00;98884.03;106856;1255;98957;-80
2023/11/14 05:09:52;;;;;;;34.20;21.30;;;;;;;6.54;100.00;98884.21;106859;1256;95808;-80
2023/11/14 05:12:38;;;;;;;32.60;21.10;;;;;;;6.61;100.00;98886.48;107009;1255;96610;-80
2023/11/14 05:15:23;;;;;;;31.60;19.60;;;;;;;6.67;100.00;98894.33;106181;1256;100030;-79
2023/11/14 05:18:09;;;;;;;36.90;19.80;;;;;;;6.72;100.00;98895.89;106031;1257;100974;-77
2023/11/14 05:20:55;;;;;;;31.50;21.60;;;;;;;6.78;100.00;98894.99;106029;1259;97764;-79
2023/11/14 05:23:40;;;;;;;30.90;19.30;;;;;;;6.82;100.00;98901.11;105775;1257;97086;-79
2023/11/14 05:26:26;;;;;;;30.00;19.10;;;;;;;6.87;100.00;98909.02;105988;1256;96783;-78
2023/11/14 05:29:11;;;;;;;33.80;20.40;;;;;;;6.91;100.00;98912.20;105952;1256;100036;-78
2023/11/14 05:31:57;;;;;;;27.30;18.00;;;;;;;6.95;100.00;98916.83;105886;1255;99260;-79
2023/11/14 05:34:44;;;;;;;26.60;17.70;;;;;;;6.99;100.00;98918.88;105904;1257;97713;-78
2023/11/14 05:37:30;;;;;;;32.40;18.40;;;;;;;7.04;100.00;98923.80;106014;1255;96600;-78
2023/11/14 05:40:16;;;;;;;28.20;16.80;;;;;;;7.07;100.00;98927.94;106089;1257;96597;-79
2023/11/14 05:43:02;;;;;;;31.20;19.40;;;;;;;7.12;100.00;98934.19;105946;1255;101276;-78
2023/11/14 05:45:50;;;;;;;31.50;18.30;;;;;;;7.16;100.00;98931.48;105988;1259;99086;-79
2023/11/14 05:48:38;;;;;;;35.40;19.80;;;;;;;7.21;100.00;98938.09;106058;1257;98926;-79
2023/11/14 05:51:23;;;;;;;32.10;20.50;;;;;;;7.25;100.00;98941.85;106508;1260;96989;-80
2023/11/14 05:54:09;;;;;;;30.70;18.80;;;;;;;7.28;100.00;98944.84;106337;1256;97023;-80
2023/11/14 05:56:56;;;;;;;31.90;20.50;;;;;;;7.31;100.00;98952.34;106391;1259;100555;-80
2023/11/14 05:59:41;;;;;;;33.00;22.10;;;;;;;7.35;100.00;98956.65;106320;1259;99208;-79
2023/11/14 06:02:27;;;;;;;34.00;22.30;;;;;;;7.39;100.00;98961.77;106365;1255;97812;-79
2023/11/14 06:05:13;;;;;;;36.30;22.10;;;;;;;7.43;100.00;98960.33;106275;1259;96742;-80
2023/11/14 06:07:59;;;;;;;32.30;21.00;;;;;;;7.46;100.00;98961.79;106312;1257;97035;-80
2023/11/14 06:10:44;;;;;;;32.60;20.50;;;;;;;7.50;100.00;98963.35;106355;1259;100038;-80
2023/11/14 06:13:30;;;;;;;32.30;20.20;;;;;;;7.53;100.00;98967.36;106307;1256;99142;-80
2023/11/14 06:16:15;;;;;;;30.50;20.10;;;;;;;7.56;100.00;98969.01;106689;1255;97795;-81
2023/11/14 06:19:02;;;;;;;29.30;19.50;;;;;;;7.59;100.00;98973.91;106723;1259;97865;-80
2023/11/14 06:21:48;;;;;;;32.90;20.90;;;;;;;7.63;100.00;98975.39;106824;1256;97068;-80
2023/11/14 06:24:33;;;;;;;31.80;20.50;;;;;;;7.65;100.00;98971.86;106682;1257;101446;-80
2023/11/14 06:27:18;;;;;;;29.90;19.10;;;;;;;7.68;100.00;98976.60;106680;1256;99067;-79
2023/11/14 06:30:04;;;;;;;25.50;17.30;;;;;;;7.70;100.00;98978.28;106911;1259;99115;-80
2023/11/14 06:32:50;;;;;;;24.30;17.80;;;;;;;7.73;100.00;98976.60;106999;1256;96498;-79
2023/11/14 06:35:36;;;;;;;30.80;18.80;;;;;;;7.76;100.00;98980.04;106810;1256;96539;-78
2023/11/14 06:38:22;;;;;;;29.40;19.80;;;;;;;7.79;100.00;98983.06;105539;1259;102144;-77
2023/11/14 06:41:11;;;;;;;33.40;19.00;;;;;;;7.82;100.00;98984.95;105652;1260;99238;-77
2023/11/14 06:43:57;;;;;;;26.80;17.60;;;;;;;7.86;100.00;98988.71;105787;1257;98979;-78
2023/11/14 06:46:42;;;;;;;27.50;18.20;;;;;;;7.90;100.00;98989.04;105849;1259;96617;-77
2023/11/14 06:49:28;;;;;;;31.50;17.80;;;;;;;7.94;100.00;98991.45;105796;1259;96624;-77
2023/11/14 06:52:13;;;;;;;27.40;18.30;;;;;;;7.98;100.00;98992.98;105931;1255;100217;-78
2023/11/14 06:54:59;;;;;;;27.60;16.30;;;;;;;8.01;100.00;98999.96;105846;1257;99131;-79
2023/11/14 06:57:44;;;;;;;29.30;16.90;;;;;;;8.05;100.00;99002.82;105692;1256;99028;-78
2023/11/14 07:00:31;;;;;;;33.40;20.60;;;;;;;8.10;100.00;99007.28;105807;1259;96843;-78
2023/11/14 07:03:17;;;;;;;30.60;19.30;;;;;;;8.15;100.00;99009.84;105750;1256;97207;-77
2023/11/14 07:06:03;;;;;;;31.10;17.00;;;;;;;8.18;100.00;99013.98;105690;1257;99968;-78
2023/11/14 07:08:49;;;;;;;26.30;16.80;;;;;;;8.22;100.00;99012.32;105733;1256;99183;-79
2023/11/14 07:11:35;;;;;;;25.00;16.40;;;;;;;8.25;100.00;99011.93;105750;1259;99273;-78
2023/11/14 07:14:24;;;;;;;24.90;16.70;;;;;;;8.29;100.00;99017.46;105734;1257;96617;-77
2023/11/14 07:17:10;;;;;;;24.70;12.90;;;;;;;8.32;100.00;99021.36;105620;1259;98045;-78
2023/11/14 07:19:57;;;;;;;21.80;13.00;;;;;;;8.34;100.00;99022.73;105731;1259;101217;-78
2023/11/14 07:22:42;;;;;;;23.40;12.50;;;;;;;8.37;100.00;99028.02;107784;1259;99805;-78
2023/11/14 07:25:36;;;;;;;20.80;11.40;;;;;;;8.40;100.00;99029.63;105983;1257;98170;-89
2023/11/14 07:28:23;;;;;;;19.80;10.70;;;;;;;8.43;100.00;99023.01;106234;1256;96631;-82
2023/11/14 07:31:09;;;;;;;22.60;11.90;;;;;;;8.46;100.00;99021.14;106309;1257;96664;-83
2023/11/14 07:33:55;;;;;;;21.50;11.10;;;;;;;8.50;100.00;99019.38;106367;1257;101247;-86
2023/11/14 07:36:40;;;;;;;21.10;10.20;;;;;;;8.55;100.00;99016.88;106423;1257;100422;-84
2023/11/14 07:39:28;;;;;;;20.60;10.00;;;;;;;8.60;100.00;99018.86;106221;1257;97811;-87
2023/11/14 07:42:13;;;;;;;22.00;10.70;;;;;;;8.64;100.00;99020.49;106573;1256;96600;-87
2023/11/14 07:44:59;;;;;;;19.30;9.70;;;;;;;8.67;100.00;99023.07;106361;1257;96517;-85
2023/11/14 07:47:45;;;;;;;26.00;10.30;;;;;;;8.70;100.00;99024.83;106073;1257;101230;-83
2023/11/14 07:50:31;;;;;;;22.20;10.90;;;;;;;8.72;100.00;99022.02;106108;1263;99179;-83
2023/11/14 07:53:17;;;;;;;24.40;10.90;;;;;;;8.75;100.00;99025.69;106182;1257;99012;-82
2023/11/14 07:56:04;;;;;;;26.00;9.40;;;;;;;8.78;100.00;99032.71;106170;1257;96620;-86
2023/11/14 07:58:51;;;;;;;18.40;7.50;;;;;;;8.81;100.00;99026.68;106241;1257;97105;-86
2023/11/14 08:01:38;;;;;;;22.60;7.70;;;;;;;8.86;100.00;99027.72;106042;1259;100041;-83
2023/11/14 08:04:26;;;;;;;13.10;6.90;;;;;;;8.94;100.00;99028.27;106561;1264;99741;-88
2023/11/14 08:07:12;;;;;;;17.60;7.10;;;;;;;9.01;100.00;99030.92;106581;1259;99229;-86
2023/11/14 08:09:58;;;;;;;15.30;6.70;;;;;;;9.07;100.00;99032.63;106186;1257;96645;-86
2023/11/14 08:12:44;;;;;;;18.70;6.00;;;;;;;9.10;100.00;99034.00;106314;1262;96587;-84
2023/11/14 08:15:30;;;;;;;12.00;6.10;;;;;;;9.12;100.00;99029.47;106190;1257;100951;-81
2023/11/14 08:18:16;;;;;;;15.30;5.60;;;;;;;9.13;100.00;99031.64;106215;1257;99064;-83
2023/11/14 08:21:02;;;;;;;17.20;6.10;;;;;;;9.14;100.00;99034.84;106212;1259;97793;-82
2023/11/14 08:23:49;;;;;;;18.40;6.90;;;;;;;9.15;100.00;99035.02;106133;1257;96804;-88
2023/11/14 08:26:35;;;;;;;17.90;6.30;;;;;;;9.17;100.00;99042.86;106087;1260;97908;-82
2023/11/14 08:29:23;;;;;;;15.00;5.10;;;;;;;9.21;100.00;99039.77;106318;1262;101041;-83
2023/11/14 08:32:09;;;;;;;9.70;5.30;;;;;;;9.24;100.00;99042.56;106136;1259;99186;-84
2023/11/14 08:34:54;;;;;;;16.20;5.60;;;;;;;9.29;100.00;99044.31;106326;1257;97748;-83
2023/11/14 08:37:40;;;;;;;17.70;6.40;;;;;;;9.32;100.00;99049.38;106333;1256;96587;-83
2023/11/14 08:40:28;;;;;;;21.70;5.70;;;;;;;9.36;100.00;99049.77;106425;1260;96525;-87
2023/11/14 08:43:20;;;;;;;17.90;6.00;;;;;;;9.40;100.00;99048.69;106219;1256;101337;-86
2023/11/14 08:46:07;;;;;;;19.30;7.30;;;;;;;9.43;100.00;99051.54;106206;1256;100475;-85
2023/11/14 08:48:54;;;;;;;22.30;6.10;;;;;;;9.48;100.00;99047.80;106540;1257;98065;-80
2023/11/14 08:51:40;;;;;;;18.00;7.10;;;;;;;9.53;100.00;99043.40;106424;1254;96641;-85
2023/11/14 08:54:27;;;;;;;17.40;6.80;;;;;;;9.57;100.00;99046.11;106234;1257;97060;-84
2023/11/14 08:57:14;;;;;;;17.90;6.40;;;;;;;9.61;100.00;99053.95;106237;1259;102485;-83
2023/11/14 09:00:00;;;;;;;20.30;6.80;;;;;;;9.65;100.00;99055.15;106308;1257;100300;-78
2023/11/14 09:02:46;;;;;;;22.50;5.90;;;;;;;9.69;100.00;99056.39;106235;1256;97589;-79
2023/11/14 09:05:32;;;;;;;14.90;5.40;;;;;;;9.72;100.00;99059.48;106058;1257;97250;-80
2023/11/14 09:08:18;;;;;;;17.50;4.70;;;;;;;9.75;100.00;99060.00;105973;1257;96395;-78
2023/11/14 09:11:04;;;;;;;19.10;4.90;;;;;;;9.77;100.00;99053.73;105939;1257;101792;-78
2023/11/14 09:13:55;;;;;;;18.90;5.30;;;;;;;9.80;100.00;99052.38;105692;1256;99203;-77
2023/11/14 09:16:41;;;;;;;11.20;4.00;;;;;;;9.82;100.00;99051.38;105461;1259;97931;-77
2023/11/14 09:19:26;;;;;;;15.00;5.30;;;;;;;9.86;100.00;99056.08;105356;1260;96536;-77
2023/11/14 09:22:12;;;;;;;10.20;5.60;;;;;;;9.88;100.00;99053.88;105437;1258;97134;-77
2023/11/14 09:24:58;;;;;;;9.30;4.00;;;;;;;9.90;100.00;99052.33;105438;1259;101260;-77
2023/11/14 09:27:44;;;;;;;14.90;4.20;;;;;;;9.92;100.00;99052.27;105619;1257;99141;-78
2023/11/14 09:30:30;;;;;;;15.30;4.20;;;;;;;9.95;100.00;99050.77;105401;1257;98991;-77
2023/11/14 09:33:15;;;;;;;15.60;4.30;;;;;;;9.99;100.00;99043.27;105425;1257;96529;-78
2023/11/14 09:36:01;;;;;;;11.40;4.50;;;;;;;10.03;100.00;99040.85;105549;1259;97047;-79
2023/11/14 09:38:47;;;;;;;13.60;4.80;;;;;;;10.07;100.00;99045.83;105484;1259;100106;-78
2023/11/14 09:41:33;;;;;;;13.80;3.80;;;;;;;10.09;100.00;99047.45;105479;1259;99141;-78
2023/11/14 09:44:18;;;;;;;11.30;4.20;;;;;;;10.11;100.00;99054.21;105409;1259;97756;-78
2023/11/14 09:47:08;;;;;;;13.70;3.80;;;;;;;10.09;100.00;99050.52;105434;1261;97891;-77
2023/11/14 09:49:53;;;;;;;15.50;4.80;;;;;;;10.05;100.00;99044.11;105447;1256;96719;-76
2023/11/14 09:52:39;;;;;;;13.30;4.00;;;;;;;10.04;100.00;99041.49;105850;1255;99993;-79
2023/11/14 09:55:26;;;;;;;15.00;4.40;;;;;;;10.03;100.00;99032.70;105835;1257;100337;-79
2023/11/14 09:58:11;;;;;;;13.30;4.20;;;;;;;10.01;100.00;99029.71;105621;1262;97718;-79
2023/11/14 10:00:57;;;;;;;14.50;4.80;;;;;;;10.00;100.00;99027.71;105886;1257;97108;-77
2023/11/14 10:03:42;;;;;;;12.90;3.50;;;;;;;10.00;100.00;99026.73;105911;1259;97122;-79
2023/11/14 10:06:28;;;;;;;14.40;4.00;;;;;;;10.00;100.00;99023.19;105581;1257;99859;-77
2023/11/14 10:09:14;;;;;;;14.20;5.30;;;;;;;9.99;100.00;99016.23;105302;1256;99217;-77
2023/11/14 10:12:02;;;;;;;15.20;4.90;;;;;;;10.01;100.00;99015.15;105307;1257;98967;-75
2023/11/14 10:14:48;;;;;;;13.30;6.20;;;;;;;10.03;100.00;99006.65;105395;1259;97878;-77
2023/11/14 10:17:40;;;;;;;13.80;4.10;;;;;;;10.07;100.00;99007.52;105316;1259;97105;-78
2023/11/14 10:20:36;;;;;;;13.80;3.90;;;;;;;10.10;100.00;99003.84;105718;1259;101259;-78
2023/11/14 10:23:33;;;;;;;12.80;4.00;;;;;;;10.15;100.00;99003.10;106877;1257;100097;-77
2023/11/14 10:26:18;;;;;;;12.60;3.40;;;;;;;10.22;100.00;99004.91;105318;1259;98434;-78
2023/11/14 10:29:04;;;;;;;19.40;4.70;;;;;;;10.29;100.00;99002.66;105466;1259;96578;-78
2023/11/14 10:31:51;;;;;;;15.50;3.50;;;;;;;10.37;100.00;99008.16;105461;1257;98317;-79
2023/11/14 10:34:37;;;;;;;15.90;3.60;;;;;;;10.44;100.00;99013.76;105538;1257;99979;-77
2023/11/14 10:37:30;;;;;;;16.70;3.50;;;;;;;10.52;100.00;99014.23;105324;1259;99150;-77
2023/11/14 10:40:16;;;;;;;13.10;5.10;;;;;;;10.59;100.00;99013.73;105181;1257;99399;-76
2023/11/14 10:43:02;;;;;;;17.70;3.90;;;;;;;10.64;100.00;99009.91;105358;1256;96582;-76
2023/11/14 10:45:48;;;;;;;12.10;3.30;;;;;;;10.69;100.00;99010.80;105220;1257;96514;-76
2023/11/14 10:48:34;;;;;;;12.20;3.30;;;;;;;10.74;100.00;99010.83;105275;1259;101274;-76
2023/11/14 10:51:20;;;;;;;12.00;3.40;;;;;;;10.78;100.00;99013.77;105666;1262;99073;-76
2023/11/14 10:54:06;;;;;;;14.30;3.70;;;;;;;10.81;100.00;99019.21;105502;1256;98910;-77
2023/11/14 10:56:52;;;;;;;13.30;3.70;;;;;;;10.84;100.00;99017.80;105284;1260;96546;-77
2023/11/14 10:59:40;;;;;;;14.50;5.00;;;;;;;10.88;100.00;99017.39;105381;1259;97217;-77
2023/11/14 11:02:32;;;;;;;13.10;3.90;;;;;;;10.93;100.00;99012.96;105348;1263;100026;-77
2023/11/14 11:05:28;;;;;;;14.40;3.40;;;;;;;10.99;100.00;99007.55;105190;1262;101015;-78
2023/11/14 11:08:13;;;;;;;8.50;2.70;;;;;;;11.05;100.00;99010.40;105320;1257;99058;-78
2023/11/14 11:11:00;;;;;;;12.10;3.40;;;;;;;11.13;100.00;99007.63;105224;1260;97819;-76
2023/11/14 11:13:46;;;;;;;14.40;3.00;;;;;;;11.21;100.00;99003.84;105467;1259;97247;-76
2023/11/14 11:17:00;;;;;;;10.30;2.80;;;;;;;11.27;100.00;99004.00;105556;1259;101247;-78
2023/11/14 11:19:51;;;;;;;15.40;3.80;;;;;;;11.33;100.00;99011.83;105856;1257;100356;-78
2023/11/14 11:23:03;;;;;;;15.00;4.40;;;;;;;11.40;100.00;99016.82;105860;1257;97765;-79
2023/11/14 11:26:13;;;;;;;10.80;3.40;;;;;;;11.47;100.00;99021.05;105558;1260;97116;-75
2023/11/14 11:28:59;;;;;;;12.60;3.10;;;;;;;11.52;100.00;99015.39;106010;1259;97148;-77
2023/11/14 11:32:23;;;;;;;16.10;3.30;;;;;;;11.55;100.00;99022.77;105282;1270;100810;-76
2023/11/14 11:35:15;;;;;;;13.90;3.90;;;;;;;11.60;100.00;99023.10;105395;1257;99071;-78
2023/11/14 11:38:09;;;;;;;14.10;3.40;;;;;;;11.67;100.00;99018.84;105464;1259;97701;-77
2023/11/14 11:41:12;;;;;;;12.60;3.90;;;;;;;11.73;100.00;99011.90;105389;1257;96686;-76
2023/11/14 11:44:02;;;;;;;10.60;2.90;;;;;;;11.77;100.00;99011.38;105339;1262;97129;-78
2023/11/14 11:46:48;;;;;;;14.80;3.80;;;;;;;11.83;100.00;99015.90;105389;1256;101277;-79
2023/11/14 11:49:35;;;;;;;9.90;3.40;;;;;;;11.88;100.00;99015.31;105880;1259;99074;-79
2023/11/14 11:52:22;;;;;;;13.00;4.00;;;;;;;11.92;100.00;99016.59;105923;1259;98778;-78
2023/11/14 11:55:15;;;;;;;13.80;3.70;;;;;;;11.96;100.00;99014.16;105492;1260;96718;-77
2023/11/14 11:58:06;;;;;;;19.50;3.40;;;;;;;12.00;100.00;99019.46;105871;1260;97131;-77
2023/11/14 12:01:06;;;;;;;;;;;;;;;12.02;100.00;99020.84;106524;1257;99992;-79
2023/11/14 12:03:51;;;;;;;16.00;3.40;;;;;;;12.01;100.00;99021.36;105932;1258;99116;-79
2023/11/14 12:06:43;;;;;;;15.90;3.30;;;;;;;12.01;100.00;99016.80;105769;1259;98965;-78
2023/11/14 12:09:29;;;;;;;13.20;3.40;;;;;;;11.99;100.00;99014.08;105916;1263;97090;-77
2023/11/14 12:12:14;;;;;;;17.20;4.20;;;;;;;11.97;100.00;99012.42;105864;1256;97090;-79
2023/11/14 12:15:04;;;;;;;16.20;3.20;;;;;;;11.94;100.00;99010.05;105471;1264;99993;-76
2023/11/14 12:17:51;;;;;;;10.00;3.50;;;;;;;11.91;100.00;99008.20;105480;1258;99124;-76
2023/11/14 12:20:37;;;;;;;11.80;3.20;;;;;;;11.88;100.00;99007.63;105501;1262;99486;-78
2023/11/14 12:23:23;;;;;;;15.20;3.40;;;;;;;11.84;100.00;99010.46;105398;1260;96613;-77
2023/11/14 12:26:09;;;;;;;12.50;2.50;;;;;;;11.81;100.00;99010.98;105400;1270;96606;-77
2023/11/14 12:28:56;;;;;;;10.60;3.30;;;;;;;11.79;100.00;99015.77;105424;1257;101394;-77
2023/11/14 12:31:46;;;;;;;11.20;3.30;;;;;;;11.78;100.00;99014.76;105419;1258;99050;-77
2023/11/14 12:34:32;;;;;;;17.20;3.00;;;;;;;11.77;100.00;99010.23;105564;1260;97822;-80
2023/11/14 12:37:19;;;;;;;13.50;3.10;;;;;;;11.76;100.00;99008.27;106702;1254;96542;-83
2023/11/14 12:40:09;;;;;;;12.60;3.10;;;;;;;11.74;100.00;99014.98;106443;1258;96578;-82